sensor_id;sensor_type;location;lat;lon;timestamp;pressure;altitude;pressure_sealevel;temperature;humidity
61478;BME280;47345;52.334;10.392;2024-01-30T00:00:49;102087.13;;;5.13;81.41
61478;BME280;47345;52.334;10.392;2024-01-30T00:03:21;102083.77;;;5.11;81.48
61478;BME280;47345;52.334;10.392;2024-01-30T00:05:51;102087.92;;;5.09;81.52
61478;BME280;47345;52.334;10.392;2024-01-30T00:08:25;102084.08;;;5.05;81.45
61478;BME280;47345;52.334;10.392;2024-01-30T00:10:56;102087.27;;;5.04;81.55
61478;BME280;47345;52.334;10.392;2024-01-30T00:13:27;102089.80;;;5.00;81.59
61478;BME280;47345;52.334;10.392;2024-01-30T00:15:57;102092.72;;;4.97;81.44
61478;BME280;47345;52.334;10.392;2024-01-30T00:18:28;102087.62;;;4.94;81.39
61478;BME280;47345;52.334;10.392;2024-01-30T00:20:58;102088.61;;;4.91;81.46
61478;BME280;47345;52.334;10.392;2024-01-30T00:23:29;102084.64;;;4.84;81.75
61478;BME280;47345;52.334;10.392;2024-01-30T00:25:59;102083.12;;;4.81;82.07
61478;BME280;47345;52.334;10.392;2024-01-30T00:28:30;102083.16;;;4.78;82.40
61478;BME280;47345;52.334;10.392;2024-01-30T00:31:01;102083.79;;;4.78;82.54
61478;BME280;47345;52.334;10.392;2024-01-30T00:33:31;102081.58;;;4.76;82.78
61478;BME280;47345;52.334;10.392;2024-01-30T00:36:02;102084.27;;;4.77;83.21
61478;BME280;47345;52.334;10.392;2024-01-30T00:38:35;102082.77;;;4.77;83.33
61478;BME280;47345;52.334;10.392;2024-01-30T00:41:05;102082.45;;;4.78;83.49
61478;BME280;47345;52.334;10.392;2024-01-30T00:43:36;102075.58;;;4.80;83.81
61478;BME280;47345;52.334;10.392;2024-01-30T00:46:07;102075.70;;;4.83;83.86
61478;BME280;47345;52.334;10.392;2024-01-30T00:48:38;102076.54;;;4.84;83.80
61478;BME280;47345;52.334;10.392;2024-01-30T00:51:08;102078.33;;;4.82;82.98
61478;BME280;47345;52.334;10.392;2024-01-30T00:53:39;102084.20;;;4.79;83.11
61478;BME280;47345;52.334;10.392;2024-01-30T00:56:11;102085.79;;;4.77;83.24
61478;BME280;47345;52.334;10.392;2024-01-30T00:58:41;102090.89;;;4.77;83.45
61478;BME280;47345;52.334;10.392;2024-01-30T01:01:12;102088.73;;;4.75;83.49
61478;BME280;47345;52.334;10.392;2024-01-30T01:03:42;102090.77;;;4.72;83.47
61478;BME280;47345;52.334;10.392;2024-01-30T01:06:14;102091.23;;;4.69;83.62
61478;BME280;47345;52.334;10.392;2024-01-30T01:08:44;102095.83;;;4.68;83.54
61478;BME280;47345;52.334;10.392;2024-01-30T01:11:15;102092.42;;;4.66;83.78
61478;BME280;47345;52.334;10.392;2024-01-30T01:13:45;102091.71;;;4.63;83.95
61478;BME280;47345;52.334;10.392;2024-01-30T01:16:15;102091.86;;;4.62;84.13
61478;BME280;47345;52.334;10.392;2024-01-30T01:18:46;102087.52;;;4.62;84.51
61478;BME280;47345;52.334;10.392;2024-01-30T01:21:17;102085.91;;;4.62;84.77
61478;BME280;47345;52.334;10.392;2024-01-30T01:23:47;102087.80;;;4.65;84.76
61478;BME280;47345;52.334;10.392;2024-01-30T01:26:18;102089.14;;;4.66;84.71
61478;BME280;47345;52.334;10.392;2024-01-30T01:28:48;102088.59;;;4.66;84.38
61478;BME280;47345;52.334;10.392;2024-01-30T01:31:19;102088.92;;;4.58;82.25
61478;BME280;47345;52.334;10.392;2024-01-30T01:33:52;102091.55;;;4.38;80.43
61478;BME280;47345;52.334;10.392;2024-01-30T01:36:23;102091.75;;;4.25;81.27
61478;BME280;47345;52.334;10.392;2024-01-30T01:38:53;102089.38;;;4.19;82.27
61478;BME280;47345;52.334;10.392;2024-01-30T01:41:24;102088.20;;;4.18;83.43
61478;BME280;47345;52.334;10.392;2024-01-30T01:43:54;102088.20;;;4.24;84.22
61478;BME280;47345;52.334;10.392;2024-01-30T01:46:27;102091.80;;;4.29;84.87
61478;BME280;47345;52.334;10.392;2024-01-30T01:48:58;102092.27;;;4.34;85.07
61478;BME280;47345;52.334;10.392;2024-01-30T01:51:31;102090.73;;;4.35;84.46
61478;BME280;47345;52.334;10.392;2024-01-30T01:54:04;102084.36;;;4.36;84.58
61478;BME280;47345;52.334;10.392;2024-01-30T01:56:36;102084.04;;;4.37;84.60
61478;BME280;47345;52.334;10.392;2024-01-30T01:59:09;102078.66;;;4.39;84.71
61478;BME280;47345;52.334;10.392;2024-01-30T02:01:39;102074.81;;;4.39;84.84
61478;BME280;47345;52.334;10.392;2024-01-30T02:04:11;102073.56;;;4.41;85.04
61478;BME280;47345;52.334;10.392;2024-01-30T02:06:41;102070.13;;;4.41;85.00
61478;BME280;47345;52.334;10.392;2024-01-30T02:09:13;102074.92;;;4.42;84.96
61478;BME280;47345;52.334;10.392;2024-01-30T02:11:43;102074.45;;;4.41;84.49
61478;BME280;47345;52.334;10.392;2024-01-30T02:14:14;102066.84;;;4.37;84.04
61478;BME280;47345;52.334;10.392;2024-01-30T02:16:44;102061.92;;;4.34;83.72
61478;BME280;47345;52.334;10.392;2024-01-30T02:19:15;102058.66;;;4.32;84.22
61478;BME280;47345;52.334;10.392;2024-01-30T02:21:46;102051.50;;;4.31;84.56
61478;BME280;47345;52.334;10.392;2024-01-30T02:24:17;102049.51;;;4.31;84.80
61478;BME280;47345;52.334;10.392;2024-01-30T02:26:47;102050.14;;;4.34;85.25
61478;BME280;47345;52.334;10.392;2024-01-30T02:29:18;102048.08;;;4.37;85.40
61478;BME280;47345;52.334;10.392;2024-01-30T02:31:48;102043.07;;;4.39;85.40
61478;BME280;47345;52.334;10.392;2024-01-30T02:34:19;102042.11;;;4.41;85.62
61478;BME280;47345;52.334;10.392;2024-01-30T02:36:50;102040.24;;;4.44;85.98
61478;BME280;47345;52.334;10.392;2024-01-30T02:39:20;102041.03;;;4.48;85.90
61478;BME280;47345;52.334;10.392;2024-01-30T02:41:51;102035.98;;;4.54;86.15
61478;BME280;47345;52.334;10.392;2024-01-30T02:44:21;102031.13;;;4.58;86.11
61478;BME280;47345;52.334;10.392;2024-01-30T02:46:52;102029.89;;;4.62;85.96
61478;BME280;47345;52.334;10.392;2024-01-30T02:49:24;102025.34;;;4.66;85.93
61478;BME280;47345;52.334;10.392;2024-01-30T02:51:55;102023.98;;;4.69;85.98
61478;BME280;47345;52.334;10.392;2024-01-30T02:54:26;102020.38;;;4.73;85.92
61478;BME280;47345;52.334;10.392;2024-01-30T02:56:56;102019.18;;;4.76;85.91
61478;BME280;47345;52.334;10.392;2024-01-30T02:59:27;102021.50;;;4.81;85.87
61478;BME280;47345;52.334;10.392;2024-01-30T03:01:57;102017.11;;;4.83;85.61
61478;BME280;47345;52.334;10.392;2024-01-30T03:04:28;102020.11;;;4.88;85.80
61478;BME280;47345;52.334;10.392;2024-01-30T03:06:59;102019.01;;;4.93;85.69
61478;BME280;47345;52.334;10.392;2024-01-30T03:09:30;102010.44;;;4.95;85.58
61478;BME280;47345;52.334;10.392;2024-01-30T03:12:00;102016.20;;;5.00;85.51
61478;BME280;47345;52.334;10.392;2024-01-30T03:14:32;102006.75;;;5.02;85.52
61478;BME280;47345;52.334;10.392;2024-01-30T03:17:03;102007.02;;;5.05;85.26
61478;BME280;47345;52.334;10.392;2024-01-30T03:19:33;102007.00;;;5.08;85.08
61478;BME280;47345;52.334;10.392;2024-01-30T03:22:04;102011.21;;;5.09;85.18
61478;BME280;47345;52.334;10.392;2024-01-30T03:24:35;102006.88;;;5.11;85.04
61478;BME280;47345;52.334;10.392;2024-01-30T03:27:06;102003.63;;;5.13;85.12
61478;BME280;47345;52.334;10.392;2024-01-30T03:29:36;102001.73;;;5.16;85.16
61478;BME280;47345;52.334;10.392;2024-01-30T03:32:07;102003.70;;;5.20;85.14
61478;BME280;47345;52.334;10.392;2024-01-30T03:34:38;102008.50;;;5.23;85.00
61478;BME280;47345;52.334;10.392;2024-01-30T03:37:08;102005.16;;;5.26;84.87
61478;BME280;47345;52.334;10.392;2024-01-30T03:39:39;102003.54;;;5.28;84.74
61478;BME280;47345;52.334;10.392;2024-01-30T03:42:09;102000.34;;;5.29;84.58
61478;BME280;47345;52.334;10.392;2024-01-30T03:44:40;102002.31;;;5.29;84.39
61478;BME280;47345;52.334;10.392;2024-01-30T03:47:10;102003.05;;;5.29;84.40
61478;BME280;47345;52.334;10.392;2024-01-30T03:49:41;102000.83;;;5.28;84.29
61478;BME280;47345;52.334;10.392;2024-01-30T03:52:12;101995.34;;;5.26;84.28
61478;BME280;47345;52.334;10.392;2024-01-30T03:54:42;101999.40;;;5.28;84.19
61478;BME280;47345;52.334;10.392;2024-01-30T03:57:13;101994.43;;;5.27;84.17
61478;BME280;47345;52.334;10.392;2024-01-30T03:59:44;101991.77;;;5.26;84.26
61478;BME280;47345;52.334;10.392;2024-01-30T04:02:14;101992.11;;;5.26;84.36
61478;BME280;47345;52.334;10.392;2024-01-30T04:04:45;101985.16;;;5.27;84.40
61478;BME280;47345;52.334;10.392;2024-01-30T04:07:16;101979.43;;;5.28;84.40
61478;BME280;47345;52.334;10.392;2024-01-30T04:09:49;101981.97;;;5.30;84.30
61478;BME280;47345;52.334;10.392;2024-01-30T04:12:19;101985.21;;;5.32;84.33
61478;BME280;47345;52.334;10.392;2024-01-30T04:14:50;101982.23;;;5.33;84.14
61478;BME280;47345;52.334;10.392;2024-01-30T04:17:20;101982.85;;;5.35;84.12
61478;BME280;47345;52.334;10.392;2024-01-30T04:19:51;101979.11;;;5.34;84.05
61478;BME280;47345;52.334;10.392;2024-01-30T04:22:22;101978.77;;;5.34;84.04
61478;BME280;47345;52.334;10.392;2024-01-30T04:24:52;101979.20;;;5.33;84.09
61478;BME280;47345;52.334;10.392;2024-01-30T04:27:23;101982.11;;;5.32;84.02
61478;BME280;47345;52.334;10.392;2024-01-30T04:29:53;101988.59;;;5.33;84.01
61478;BME280;47345;52.334;10.392;2024-01-30T04:32:23;101983.70;;;5.33;84.13
61478;BME280;47345;52.334;10.392;2024-01-30T04:34:54;101985.34;;;5.33;84.17
61478;BME280;47345;52.334;10.392;2024-01-30T04:37:25;101985.44;;;5.34;84.01
61478;BME280;47345;52.334;10.392;2024-01-30T04:39:56;101984.56;;;5.34;84.19
61478;BME280;47345;52.334;10.392;2024-01-30T04:42:26;101985.83;;;5.34;84.10
61478;BME280;47345;52.334;10.392;2024-01-30T04:44:57;101983.30;;;5.35;84.18
61478;BME280;47345;52.334;10.392;2024-01-30T04:47:27;101983.99;;;5.36;84.15
61478;BME280;47345;52.334;10.392;2024-01-30T04:49:59;101982.74;;;5.36;84.02
61478;BME280;47345;52.334;10.392;2024-01-30T04:52:29;101982.62;;;5.37;84.11
61478;BME280;47345;52.334;10.392;2024-01-30T04:55:00;101984.05;;;5.37;84.21
61478;BME280;47345;52.334;10.392;2024-01-30T04:57:31;101988.81;;;5.38;84.10
61478;BME280;47345;52.334;10.392;2024-01-30T05:00:03;101982.31;;;5.39;84.16
61478;BME280;47345;52.334;10.392;2024-01-30T05:02:34;101980.95;;;5.38;84.01
61478;BME280;47345;52.334;10.392;2024-01-30T05:05:06;101982.65;;;5.37;84.00
61478;BME280;47345;52.334;10.392;2024-01-30T05:07:38;101981.53;;;5.37;84.19
61478;BME280;47345;52.334;10.392;2024-01-30T05:10:10;101982.66;;;5.37;84.07
61478;BME280;47345;52.334;10.392;2024-01-30T05:12:41;101983.27;;;5.36;84.15
61478;BME280;47345;52.334;10.392;2024-01-30T05:15:12;101980.17;;;5.36;84.08
61478;BME280;47345;52.334;10.392;2024-01-30T05:17:43;101980.63;;;5.35;84.04
61478;BME280;47345;52.334;10.392;2024-01-30T05:20:14;101979.45;;;5.34;84.09
61478;BME280;47345;52.334;10.392;2024-01-30T05:22:45;101980.91;;;5.34;84.18
61478;BME280;47345;52.334;10.392;2024-01-30T05:25:15;101982.11;;;5.35;84.17
61478;BME280;47345;52.334;10.392;2024-01-30T05:27:46;101981.91;;;5.35;84.19
61478;BME280;47345;52.334;10.392;2024-01-30T05:30:16;101980.63;;;5.35;84.19
61478;BME280;47345;52.334;10.392;2024-01-30T05:32:47;101987.25;;;5.36;84.14
61478;BME280;47345;52.334;10.392;2024-01-30T05:35:18;101979.83;;;5.36;84.09
61478;BME280;47345;52.334;10.392;2024-01-30T05:37:50;101983.05;;;5.36;84.10
61478;BME280;47345;52.334;10.392;2024-01-30T05:40:21;101985.11;;;5.36;83.99
61478;BME280;47345;52.334;10.392;2024-01-30T05:42:51;101979.98;;;5.35;83.92
61478;BME280;47345;52.334;10.392;2024-01-30T05:45:22;101981.42;;;5.32;83.95
61478;BME280;47345;52.334;10.392;2024-01-30T05:47:53;101980.40;;;5.30;83.84
61478;BME280;47345;52.334;10.392;2024-01-30T05:50:23;101983.29;;;5.28;83.88
61478;BME280;47345;52.334;10.392;2024-01-30T05:52:55;101981.53;;;5.25;83.93
61478;BME280;47345;52.334;10.392;2024-01-30T05:55:26;101977.98;;;5.23;83.96
61478;BME280;47345;52.334;10.392;2024-01-30T05:57:57;101975.74;;;5.21;84.05
61478;BME280;47345;52.334;10.392;2024-01-30T06:00:27;101973.74;;;5.20;84.10
61478;BME280;47345;52.334;10.392;2024-01-30T06:02:58;101974.26;;;5.18;84.27
61478;BME280;47345;52.334;10.392;2024-01-30T06:05:29;101973.98;;;5.17;84.22
61478;BME280;47345;52.334;10.392;2024-01-30T06:08:02;101970.54;;;5.15;84.23
61478;BME280;47345;52.334;10.392;2024-01-30T06:10:33;101976.45;;;5.15;84.18
61478;BME280;47345;52.334;10.392;2024-01-30T06:13:03;101974.84;;;5.13;84.25
61478;BME280;47345;52.334;10.392;2024-01-30T06:15:34;101973.82;;;5.10;84.34
61478;BME280;47345;52.334;10.392;2024-01-30T06:18:05;101975.59;;;5.11;84.28
61478;BME280;47345;52.334;10.392;2024-01-30T06:20:36;101973.33;;;5.10;84.39
61478;BME280;47345;52.334;10.392;2024-01-30T06:23:07;101974.13;;;5.09;84.40
61478;BME280;47345;52.334;10.392;2024-01-30T06:25:37;101964.67;;;5.08;84.30
61478;BME280;47345;52.334;10.392;2024-01-30T06:28:08;101960.13;;;5.08;84.51
61478;BME280;47345;52.334;10.392;2024-01-30T06:30:38;101956.71;;;5.08;84.57
61478;BME280;47345;52.334;10.392;2024-01-30T06:33:10;101956.95;;;5.09;84.59
61478;BME280;47345;52.334;10.392;2024-01-30T06:35:42;101957.58;;;5.10;84.44
61478;BME280;47345;52.334;10.392;2024-01-30T06:38:14;101955.94;;;5.10;84.45
61478;BME280;47345;52.334;10.392;2024-01-30T06:40:45;101957.14;;;5.09;84.36
61478;BME280;47345;52.334;10.392;2024-01-30T06:43:16;101950.44;;;5.07;84.27
61478;BME280;47345;52.334;10.392;2024-01-30T06:45:46;101952.71;;;5.06;84.26
61478;BME280;47345;52.334;10.392;2024-01-30T06:48:17;101951.65;;;5.06;84.34
61478;BME280;47345;52.334;10.392;2024-01-30T06:50:47;101958.51;;;5.06;84.41
61478;BME280;47345;52.334;10.392;2024-01-30T06:53:18;101962.10;;;5.06;84.44
61478;BME280;47345;52.334;10.392;2024-01-30T06:55:49;101957.90;;;5.07;84.22
61478;BME280;47345;52.334;10.392;2024-01-30T06:58:19;101954.67;;;5.06;84.32
61478;BME280;47345;52.334;10.392;2024-01-30T07:00:51;101959.82;;;5.08;84.25
61478;BME280;47345;52.334;10.392;2024-01-30T07:03:22;101954.34;;;5.08;84.28
61478;BME280;47345;52.334;10.392;2024-01-30T07:05:52;101953.11;;;5.08;84.19
61478;BME280;47345;52.334;10.392;2024-01-30T07:08:23;101946.36;;;5.08;84.13
61478;BME280;47345;52.334;10.392;2024-01-30T07:10:53;101949.06;;;5.08;84.28
61478;BME280;47345;52.334;10.392;2024-01-30T07:13:29;101944.81;;;5.09;84.13
61478;BME280;47345;52.334;10.392;2024-01-30T07:15:59;101947.20;;;5.11;84.13
61478;BME280;47345;52.334;10.392;2024-01-30T07:18:30;101947.55;;;5.13;84.16
61478;BME280;47345;52.334;10.392;2024-01-30T07:21:01;101945.02;;;5.15;84.03
61478;BME280;47345;52.334;10.392;2024-01-30T07:23:31;101951.30;;;5.18;83.89
61478;BME280;47345;52.334;10.392;2024-01-30T07:26:04;101953.63;;;5.20;83.75
61478;BME280;47345;52.334;10.392;2024-01-30T07:28:36;101954.73;;;5.22;83.72
61478;BME280;47345;52.334;10.392;2024-01-30T07:31:06;101951.98;;;5.24;83.64
61478;BME280;47345;52.334;10.392;2024-01-30T07:33:37;101947.79;;;5.26;83.62
61478;BME280;47345;52.334;10.392;2024-01-30T07:36:09;101949.70;;;5.29;83.59
61478;BME280;47345;52.334;10.392;2024-01-30T07:38:40;101952.06;;;5.33;83.58
61478;BME280;47345;52.334;10.392;2024-01-30T07:41:10;101954.00;;;5.37;83.63
61478;BME280;47345;52.334;10.392;2024-01-30T07:43:41;101956.37;;;5.43;83.48
61478;BME280;47345;52.334;10.392;2024-01-30T07:46:11;101956.11;;;5.48;83.30
61478;BME280;47345;52.334;10.392;2024-01-30T07:48:42;101955.31;;;5.54;83.20
61478;BME280;47345;52.334;10.392;2024-01-30T07:51:12;101956.33;;;5.61;83.13
61478;BME280;47345;52.334;10.392;2024-01-30T07:53:43;101956.85;;;5.67;83.06
61478;BME280;47345;52.334;10.392;2024-01-30T08:03:00;101953.36;;;5.87;82.53
61478;BME280;47345;52.334;10.392;2024-01-30T08:05:31;101946.73;;;5.92;82.41
61478;BME280;47345;52.334;10.392;2024-01-30T08:08:02;101948.71;;;5.98;82.27
61478;BME280;47345;52.334;10.392;2024-01-30T08:10:32;101944.72;;;6.06;82.11
61478;BME280;47345;52.334;10.392;2024-01-30T08:13:03;101944.32;;;6.14;81.97
61478;BME280;47345;52.334;10.392;2024-01-30T08:15:33;101945.96;;;6.21;81.73
61478;BME280;47345;52.334;10.392;2024-01-30T08:18:04;101944.98;;;6.30;81.56
61478;BME280;47345;52.334;10.392;2024-01-30T08:20:36;101945.17;;;6.37;81.15
61478;BME280;47345;52.334;10.392;2024-01-30T08:23:06;101941.88;;;6.43;80.98
61478;BME280;47345;52.334;10.392;2024-01-30T08:25:36;101945.16;;;6.50;80.95
61478;BME280;47345;52.334;10.392;2024-01-30T08:28:07;101945.91;;;6.57;80.95
61478;BME280;47345;52.334;10.392;2024-01-30T08:30:37;101950.55;;;6.66;80.61
61478;BME280;47345;52.334;10.392;2024-01-30T08:33:09;101949.83;;;6.73;80.44
61478;BME280;47345;52.334;10.392;2024-01-30T08:35:39;101953.07;;;6.83;80.17
61478;BME280;47345;52.334;10.392;2024-01-30T08:38:09;101948.88;;;6.92;79.89
61478;BME280;47345;52.334;10.392;2024-01-30T08:40:41;101950.05;;;7.02;79.87
61478;BME280;47345;52.334;10.392;2024-01-30T08:43:12;101944.27;;;7.09;79.45
61478;BME280;47345;52.334;10.392;2024-01-30T08:45:43;101948.63;;;7.18;79.09
61478;BME280;47345;52.334;10.392;2024-01-30T08:48:14;101942.36;;;7.27;78.90
61478;BME280;47345;52.334;10.392;2024-01-30T08:50:44;101941.44;;;7.34;78.53
61478;BME280;47345;52.334;10.392;2024-01-30T08:53:15;101942.14;;;7.41;78.07
61478;BME280;47345;52.334;10.392;2024-01-30T08:55:45;101934.90;;;7.46;77.85
61478;BME280;47345;52.334;10.392;2024-01-30T08:58:16;101935.41;;;7.56;77.62
61478;BME280;47345;52.334;10.392;2024-01-30T09:00:48;101937.58;;;7.63;77.33
61478;BME280;47345;52.334;10.392;2024-01-30T09:03:21;101931.61;;;7.70;77.07
61478;BME280;47345;52.334;10.392;2024-01-30T09:05:51;101927.70;;;7.76;76.94
61478;BME280;47345;52.334;10.392;2024-01-30T09:08:22;101926.82;;;7.81;76.73
61478;BME280;47345;52.334;10.392;2024-01-30T09:10:52;101928.56;;;7.87;76.63
61478;BME280;47345;52.334;10.392;2024-01-30T09:13:24;101923.80;;;7.93;76.35
61478;BME280;47345;52.334;10.392;2024-01-30T09:15:55;101926.67;;;7.98;76.01
61478;BME280;47345;52.334;10.392;2024-01-30T09:18:26;101928.48;;;8.03;75.81
61478;BME280;47345;52.334;10.392;2024-01-30T09:20:56;101929.29;;;8.08;75.82
61478;BME280;47345;52.334;10.392;2024-01-30T09:23:28;101932.90;;;8.13;75.61
61478;BME280;47345;52.334;10.392;2024-01-30T09:25:59;101943.02;;;8.21;75.46
61478;BME280;47345;52.334;10.392;2024-01-30T09:28:30;101941.05;;;8.26;75.27
61478;BME280;47345;52.334;10.392;2024-01-30T09:31:00;101941.82;;;8.31;75.21
61478;BME280;47345;52.334;10.392;2024-01-30T09:33:32;101942.39;;;8.36;74.88
61478;BME280;47345;52.334;10.392;2024-01-30T09:36:02;101943.74;;;8.40;74.83
61478;BME280;47345;52.334;10.392;2024-01-30T09:38:33;101944.11;;;8.45;74.68
61478;BME280;47345;52.334;10.392;2024-01-30T09:41:08;101943.58;;;8.50;74.49
61478;BME280;47345;52.334;10.392;2024-01-30T09:43:39;101944.25;;;8.58;74.40
61478;BME280;47345;52.334;10.392;2024-01-30T09:46:13;101937.99;;;8.62;73.88
61478;BME280;47345;52.334;10.392;2024-01-30T09:48:47;101939.04;;;8.68;73.82
61478;BME280;47345;52.334;10.392;2024-01-30T09:51:18;101942.02;;;8.74;73.59
61478;BME280;47345;52.334;10.392;2024-01-30T09:53:49;101934.50;;;8.79;73.46
61478;BME280;47345;52.334;10.392;2024-01-30T09:56:20;101934.00;;;8.86;73.36
61478;BME280;47345;52.334;10.392;2024-01-30T09:58:51;101931.67;;;8.92;73.06
61478;BME280;47345;52.334;10.392;2024-01-30T10:01:21;101925.75;;;8.98;72.70
61478;BME280;47345;52.334;10.392;2024-01-30T10:03:53;101923.05;;;9.05;72.54
61478;BME280;47345;52.334;10.392;2024-01-30T10:06:25;101918.60;;;9.11;72.29
61478;BME280;47345;52.334;10.392;2024-01-30T10:08:56;101917.44;;;9.14;71.86
61478;BME280;47345;52.334;10.392;2024-01-30T10:11:27;101916.83;;;9.20;71.85
61478;BME280;47345;52.334;10.392;2024-01-30T10:13:57;101915.48;;;9.26;71.64
61478;BME280;47345;52.334;10.392;2024-01-30T10:16:28;101914.68;;;9.31;71.57
61478;BME280;47345;52.334;10.392;2024-01-30T10:18:58;101915.49;;;9.37;71.04
61478;BME280;47345;52.334;10.392;2024-01-30T10:21:29;101917.84;;;9.44;71.33
61478;BME280;47345;52.334;10.392;2024-01-30T10:24:00;101916.54;;;9.53;71.33
61478;BME280;47345;52.334;10.392;2024-01-30T10:26:30;101916.10;;;9.61;71.18
61478;BME280;47345;52.334;10.392;2024-01-30T10:29:03;101917.88;;;9.68;70.97
61478;BME280;47345;52.334;10.392;2024-01-30T10:31:34;101910.73;;;9.75;70.87
61478;BME280;47345;52.334;10.392;2024-01-30T10:34:06;101916.02;;;9.85;70.46
61478;BME280;47345;52.334;10.392;2024-01-30T10:36:51;101914.46;;;9.93;70.23
61478;BME280;47345;52.334;10.392;2024-01-30T10:39:30;101908.58;;;9.96;69.99
61478;BME280;47345;52.334;10.392;2024-01-30T10:42:06;101913.21;;;10.02;69.99
61478;BME280;47345;52.334;10.392;2024-01-30T10:44:39;101908.65;;;10.07;69.98
61478;BME280;47345;52.334;10.392;2024-01-30T10:47:14;101909.58;;;10.11;69.77
61478;BME280;47345;52.334;10.392;2024-01-30T10:49:48;101910.42;;;10.15;69.53
61478;BME280;47345;52.334;10.392;2024-01-30T10:52:20;101912.11;;;10.21;69.46
61478;BME280;47345;52.334;10.392;2024-01-30T10:54:51;101905.27;;;10.27;69.44
61478;BME280;47345;52.334;10.392;2024-01-30T10:57:24;101898.13;;;10.32;69.18
61478;BME280;47345;52.334;10.392;2024-01-30T10:59:57;101893.84;;;10.38;68.99
61478;BME280;47345;52.334;10.392;2024-01-30T11:02:29;101893.83;;;10.41;68.79
61478;BME280;47345;52.334;10.392;2024-01-30T11:05:00;101893.30;;;10.44;68.58
61478;BME280;47345;52.334;10.392;2024-01-30T11:07:32;101890.99;;;10.47;68.40
61478;BME280;47345;52.334;10.392;2024-01-30T11:10:05;101895.77;;;10.50;68.22
61478;BME280;47345;52.334;10.392;2024-01-30T11:12:41;101893.55;;;10.55;68.56
61478;BME280;47345;52.334;10.392;2024-01-30T11:15:15;101887.77;;;10.59;68.18
61478;BME280;47345;52.334;10.392;2024-01-30T11:17:51;101891.61;;;10.63;68.24
61478;BME280;47345;52.334;10.392;2024-01-30T11:20:25;101894.48;;;10.70;68.07
61478;BME280;47345;52.334;10.392;2024-01-30T11:22:57;101886.90;;;10.74;68.06
61478;BME280;47345;52.334;10.392;2024-01-30T11:25:28;101886.45;;;10.78;68.05
61478;BME280;47345;52.334;10.392;2024-01-30T11:28:01;101880.52;;;10.82;68.17
61478;BME280;47345;52.334;10.392;2024-01-30T11:30:33;101881.48;;;10.88;69.37
61478;BME280;47345;52.334;10.392;2024-01-30T11:33:06;101879.16;;;10.92;69.27
61478;BME280;47345;52.334;10.392;2024-01-30T11:35:39;101875.93;;;10.95;68.23
61478;BME280;47345;52.334;10.392;2024-01-30T11:38:13;101880.46;;;10.97;68.08
61478;BME280;47345;52.334;10.392;2024-01-30T11:40:45;101872.00;;;10.99;68.31
61478;BME280;47345;52.334;10.392;2024-01-30T11:43:16;101870.46;;;11.02;68.17
61478;BME280;47345;52.334;10.392;2024-01-30T11:45:48;101867.70;;;11.01;67.86
61478;BME280;47345;52.334;10.392;2024-01-30T11:48:19;101866.59;;;11.03;67.63
61478;BME280;47345;52.334;10.392;2024-01-30T11:50:50;101866.90;;;11.03;67.83
61478;BME280;47345;52.334;10.392;2024-01-30T11:53:21;101867.42;;;11.05;67.69
61478;BME280;47345;52.334;10.392;2024-01-30T11:55:52;101867.70;;;11.06;67.62
61478;BME280;47345;52.334;10.392;2024-01-30T11:58:26;101863.27;;;11.06;67.50
61478;BME280;47345;52.334;10.392;2024-01-30T12:00:57;101863.39;;;11.10;67.95
61478;BME280;47345;52.334;10.392;2024-01-30T12:03:29;101866.70;;;11.11;67.47
61478;BME280;47345;52.334;10.392;2024-01-30T12:06:00;101863.39;;;11.13;67.44
61478;BME280;47345;52.334;10.392;2024-01-30T12:08:33;101862.88;;;11.14;67.41
61478;BME280;47345;52.334;10.392;2024-01-30T12:11:06;101863.54;;;11.16;67.38
61478;BME280;47345;52.334;10.392;2024-01-30T12:13:36;101858.42;;;11.18;67.44
61478;BME280;47345;52.334;10.392;2024-01-30T12:16:08;101858.02;;;11.16;67.08
61478;BME280;47345;52.334;10.392;2024-01-30T12:18:38;101859.76;;;11.17;67.22
61478;BME280;47345;52.334;10.392;2024-01-30T12:21:09;101855.96;;;11.17;67.10
61478;BME280;47345;52.334;10.392;2024-01-30T12:23:39;101852.10;;;11.16;66.98
61478;BME280;47345;52.334;10.392;2024-01-30T12:26:11;101853.55;;;11.14;67.04
61478;BME280;47345;52.334;10.392;2024-01-30T12:28:50;101856.04;;;11.16;67.02
61478;BME280;47345;52.334;10.392;2024-01-30T12:31:26;101851.09;;;11.18;66.96
61478;BME280;47345;52.334;10.392;2024-01-30T12:34:00;101839.28;;;11.19;66.96
61478;BME280;47345;52.334;10.392;2024-01-30T12:36:32;101837.29;;;11.23;67.08
61478;BME280;47345;52.334;10.392;2024-01-30T12:39:02;101831.81;;;11.24;66.92
61478;BME280;47345;52.334;10.392;2024-01-30T12:41:34;101833.98;;;11.25;66.83
61478;BME280;47345;52.334;10.392;2024-01-30T12:44:05;101834.66;;;11.26;66.90
61478;BME280;47345;52.334;10.392;2024-01-30T12:46:36;101830.38;;;11.26;66.85
61478;BME280;47345;52.334;10.392;2024-01-30T12:49:07;101835.68;;;11.31;67.07
61478;BME280;47345;52.334;10.392;2024-01-30T12:51:37;101836.29;;;11.32;66.95
61478;BME280;47345;52.334;10.392;2024-01-30T12:54:09;101841.72;;;11.37;67.00
61478;BME280;47345;52.334;10.392;2024-01-30T12:56:39;101846.02;;;11.39;67.00
61478;BME280;47345;52.334;10.392;2024-01-30T12:59:10;101845.89;;;11.42;66.83
61478;BME280;47345;52.334;10.392;2024-01-30T13:01:40;101849.20;;;11.43;66.93
61478;BME280;47345;52.334;10.392;2024-01-30T13:04:11;101849.03;;;11.46;67.06
61478;BME280;47345;52.334;10.392;2024-01-30T13:06:42;101847.67;;;11.48;66.86
61478;BME280;47345;52.334;10.392;2024-01-30T13:09:12;101849.92;;;11.46;66.77
61478;BME280;47345;52.334;10.392;2024-01-30T13:11:43;101863.05;;;11.47;66.66
61478;BME280;47345;52.334;10.392;2024-01-30T13:14:13;101866.73;;;11.46;66.86